Aérodrome :
LOGIN :

S'inscrire | Disclaimer

   EN    FR    IT 

 










Légende :    VFR   VFR Marginal   IFR   IFR Intensif   IFR Très Intensif
Visi : 
Plafond : 
>= 8 km
>= 3000ft
5 à 8 km
1000 à 3000 ft
1500m à 5 km
500 à 1000 ft
800 à 1500m
200 à 500 ft
< 800m
< 200 ft
Symboles :   Orages  Brouillard  Fortes neiges  Fortes précipitations  Vent > 20 kt
SIGMETs :   Divers  Orages  Givrage  Turbulence  Onde Orograph.  Cendres Volcan.






- Altitude de l'aérodrome : 374 ft
- Code IATA : LIS


LPPT - Lisboa Portela

DERNIER METAR :
  • 281630Z 35017KT 320V020 9999 FEW045 21/07 Q1024

METARs EXPIRÉS :
  • 281600Z 36016KT 330V030 CAVOK 21/07 Q1024
  • 281530Z 35016KT CAVOK 21/09 Q1023
  • 281500Z 34013KT 300V020 9999 FEW042 22/11 Q1023
  • 281430Z 36015KT 320V030 9999 FEW040 21/10 Q1024
  • 281400Z 34014KT 290V010 9999 FEW040 22/10 Q1023

TAF TAF LPPT
Valide du 28 à 12h jusqu'au 29 à 18h UTC


281100Z 2812/2918 35013KT 9999 FEW035
PROB30
TEMPO 2812/2821 35018G28KT
PROB30
TEMPO 2912/2918 35018G28KT



MET'MAP, la Météo Aéronautique d'un coup d'oeil ! - Copyright ORBIFLY Décembre 2007 - Disclaimer

ORBIFLY MET'MAP TEAM :

Programmation & Développement : Alexandra Zaïnal
Sur une idée originale de : Baudouin d'Aumeries
Assistance à la programmation : Marc-Olivier Méhu
Soutien technique & logistique : Manuel Goepfert

Contact : metmap@orbifly.com




SOURCES & CREDITS :

   NOAA